Aeroporto :
LOGIN :

Iscrizione | Disclaimer

   EN    FR    IT 

 










Sommario :    VFR   VFR Marginale   IFR   IFR Intensivo   IFR Molto Intensivo
Visibilità : 
Base nubi : 
>= 8 km
>= 3000ft
5 / 8 km
1000 / 3000 ft
1500m / 5 km
500 / 1000 ft
800 / 1500m
200 / 500 ft
< 800m
< 200 ft
Simboli :   Temporali  Nebbia  Neve Forte  Precipitazioni Forti  Vento > 20 kt
SIGMETs :   Varie  Temporali  Ghiacco  Turbolenza  Onda orograficha  Ceneri Vulcaniche






- Altitudine del aeroporto : 231 ft
- Codice IATA : WTN


EGXW - RAF Waddington

ULTIMO METAR :
  • 280550Z 20011KT CAVOK 03/M01 Q1010 RMK BLU

METARs OBSOLETI :
  • 280450Z 21010KT CAVOK 02/M01 Q1011 RMK BLU
  • 280350Z AUTO 22010KT 9999 SCT180/// 02/M01 Q1011
  • 280250Z AUTO 23010KT 9999 SCT140/// SCT190/// 02/M01 Q1011

TAF TAF EGXW
Valido dal 28 a 06 ore il 29 a 00 ore UTC


280443Z 2806/2824 20010KT 9999 FEW035
BECMG 2808/2810 16014KT -RA BKN015
BECMG 2810/2812 16017G27KT BKN008
TEMPO 2810/2818 4500 RA SCT005 BKN010
PROB30
TEMPO 2813/2817 3500 RA SCT004 BKN006
BECMG 2816/2818 20015G25KT NSW
PROB30
TEMPO 2819/2821 FEW010
PROB30
TEMPO 2822/2824 5000 RA



MetMap, La meteo Aeronautica in un colpo d'occhio ! - Copyright ORBIFLY Dicembre 2007 - Disclaimer

ORBIFLY MET'MAP TEAM :

Programmazione e sviluppo : Alexandra Zaïnal
Concezione : Baudouin d'Aumeries
Aiuto per la programmazione : Marc-Olivier Méhu
Supporto tecnico e logistico : Manuel Goepfert
Aiuto per la traduzione : Arnaldo La Scala

Contatto : metmap@orbifly.com




FONTI E CREDITI :

   NOAA